sensor_id;sensor_type;location;lat;lon;timestamp;pressure;altitude;pressure_sealevel;temperature;humidity
63901;BME280;50538;53.482;10.294;2023-05-21T00:01:51;101667.81;;;13.26;69.47
63901;BME280;50538;53.482;10.294;2023-05-21T00:11:52;101658.44;;;13.14;70.61
63901;BME280;50538;53.482;10.294;2023-05-21T00:21:53;101658.88;;;13.02;69.35
63901;BME280;50538;53.482;10.294;2023-05-21T00:31:53;101662.97;;;12.88;70.75
63901;BME280;50538;53.482;10.294;2023-05-21T00:41:54;101641.78;;;12.78;70.39
63901;BME280;50538;53.482;10.294;2023-05-21T00:51:56;101639.22;;;12.69;71.00
63901;BME280;50538;53.482;10.294;2023-05-21T01:01:57;101641.16;;;12.58;69.17
63901;BME280;50538;53.482;10.294;2023-05-21T01:12:03;101631.28;;;12.51;70.82
63901;BME280;50538;53.482;10.294;2023-05-21T01:22:07;101622.66;;;12.39;71.04
63901;BME280;50538;53.482;10.294;2023-05-21T01:32:18;101619.09;;;12.31;71.87
63901;BME280;50538;53.482;10.294;2023-05-21T01:42:21;101610.41;;;12.20;71.71
63901;BME280;50538;53.482;10.294;2023-05-21T01:52:23;101602.66;;;12.09;73.39
63901;BME280;50538;53.482;10.294;2023-05-21T02:02:23;101602.75;;;12.00;75.29
63901;BME280;50538;53.482;10.294;2023-05-21T02:12:23;101600.84;;;11.92;75.77
63901;BME280;50538;53.482;10.294;2023-05-21T02:22:24;101588.28;;;11.84;76.12
63901;BME280;50538;53.482;10.294;2023-05-21T02:32:25;101585.56;;;11.76;74.05
63901;BME280;50538;53.482;10.294;2023-05-21T02:42:25;101575.69;;;11.69;75.80
63901;BME280;50538;53.482;10.294;2023-05-21T02:52:26;101581.78;;;11.61;77.57
63901;BME280;50538;53.482;10.294;2023-05-21T03:02:26;101568.41;;;11.53;76.23
63901;BME280;50538;53.482;10.294;2023-05-21T03:12:26;101564.38;;;11.49;75.76
63901;BME280;50538;53.482;10.294;2023-05-21T03:22:27;101551.69;;;11.43;76.99
63901;BME280;50538;53.482;10.294;2023-05-21T03:32:27;101566.41;;;11.37;78.51
63901;BME280;50538;53.482;10.294;2023-05-21T03:42:27;101551.28;;;11.38;78.59
63901;BME280;50538;53.482;10.294;2023-05-21T03:52:28;101540.34;;;11.41;78.94
63901;BME280;50538;53.482;10.294;2023-05-21T04:02:28;101542.25;;;11.48;77.86
63901;BME280;50538;53.482;10.294;2023-05-21T04:12:28;101538.38;;;11.60;80.46
63901;BME280;50538;53.482;10.294;2023-05-21T04:22:29;101536.00;;;11.75;80.80
63901;BME280;50538;53.482;10.294;2023-05-21T04:32:29;101543.97;;;11.93;77.49
63901;BME280;50538;53.482;10.294;2023-05-21T04:42:30;101532.44;;;12.10;79.16
63901;BME280;50538;53.482;10.294;2023-05-21T04:52:32;101541.03;;;12.30;78.51
63901;BME280;50538;53.482;10.294;2023-05-21T05:02:33;101531.72;;;12.52;81.16
63901;BME280;50538;53.482;10.294;2023-05-21T05:12:34;101536.66;;;12.73;80.28
63901;BME280;50538;53.482;10.294;2023-05-21T05:22:34;101541.50;;;12.85;80.62
63901;BME280;50538;53.482;10.294;2023-05-21T05:32:34;101532.78;;;13.17;80.91
63901;BME280;50538;53.482;10.294;2023-05-21T05:42:35;101531.00;;;13.67;76.46
63901;BME280;50538;53.482;10.294;2023-05-21T05:52:35;101527.13;;;14.26;80.21
63901;BME280;50538;53.482;10.294;2023-05-21T06:02:35;101532.09;;;14.84;80.33
63901;BME280;50538;53.482;10.294;2023-05-21T06:12:36;101523.56;;;15.20;76.37
63901;BME280;50538;53.482;10.294;2023-05-21T06:22:36;101521.88;;;15.50;77.04
63901;BME280;50538;53.482;10.294;2023-05-21T06:32:37;101522.06;;;15.86;75.81
63901;BME280;50538;53.482;10.294;2023-05-21T06:42:37;101522.41;;;16.20;73.31
63901;BME280;50538;53.482;10.294;2023-05-21T06:52:37;101517.06;;;16.50;72.86
63901;BME280;50538;53.482;10.294;2023-05-21T07:02:38;101520.91;;;16.92;76.27
63901;BME280;50538;53.482;10.294;2023-05-21T07:12:38;101511.19;;;17.27;75.09
63901;BME280;50538;53.482;10.294;2023-05-21T07:22:40;101509.78;;;17.73;73.66
63901;BME280;50538;53.482;10.294;2023-05-21T07:32:42;101508.09;;;18.49;73.27
63901;BME280;50538;53.482;10.294;2023-05-21T07:42:42;101486.16;;;19.20;71.15
63901;BME280;50538;53.482;10.294;2023-05-21T07:52:42;101487.25;;;19.85;66.98
63901;BME280;50538;53.482;10.294;2023-05-21T08:02:43;101476.88;;;20.02;67.69
63901;BME280;50538;53.482;10.294;2023-05-21T08:12:43;101479.56;;;20.28;69.18
63901;BME280;50538;53.482;10.294;2023-05-21T08:22:43;101472.22;;;20.93;68.25
63901;BME280;50538;53.482;10.294;2023-05-21T08:32:44;101465.19;;;22.05;63.44
63901;BME280;50538;53.482;10.294;2023-05-21T08:42:46;101482.09;;;22.37;63.65
63901;BME280;50538;53.482;10.294;2023-05-21T08:52:47;101465.94;;;22.49;62.51
63901;BME280;50538;53.482;10.294;2023-05-21T09:02:50;101456.22;;;22.77;62.32
63901;BME280;50538;53.482;10.294;2023-05-21T09:12:53;101454.03;;;23.39;62.09
63901;BME280;50538;53.482;10.294;2023-05-21T09:22:53;101454.00;;;23.93;61.18
63901;BME280;50538;53.482;10.294;2023-05-21T09:32:57;101458.50;;;24.62;57.78
63901;BME280;50538;53.482;10.294;2023-05-21T09:42:58;101453.31;;;25.18;57.51
63901;BME280;50538;53.482;10.294;2023-05-21T09:52:58;101446.47;;;25.99;55.33
63901;BME280;50538;53.482;10.294;2023-05-21T10:03:08;101442.41;;;26.62;54.28
63901;BME280;50538;53.482;10.294;2023-05-21T10:13:11;101433.41;;;26.88;52.16
63901;BME280;50538;53.482;10.294;2023-05-21T10:23:12;101434.28;;;27.21;51.70
63901;BME280;50538;53.482;10.294;2023-05-21T10:33:16;101411.94;;;27.61;51.34
63901;BME280;50538;53.482;10.294;2023-05-21T10:43:33;101395.75;;;27.81;49.97
63901;BME280;50538;53.482;10.294;2023-05-21T10:53:54;101391.53;;;28.16;51.60
63901;BME280;50538;53.482;10.294;2023-05-21T11:04:01;101381.59;;;28.62;48.25
63901;BME280;50538;53.482;10.294;2023-05-21T11:24:31;101375.34;;;29.43;50.25
63901;BME280;50538;53.482;10.294;2023-05-21T11:34:39;101364.38;;;29.68;51.18
63901;BME280;50538;53.482;10.294;2023-05-21T11:44:45;101367.78;;;30.09;45.37
63901;BME280;50538;53.482;10.294;2023-05-21T11:54:49;101361.88;;;30.46;44.34
63901;BME280;50538;53.482;10.294;2023-05-21T12:04:50;101350.69;;;30.38;44.62
63901;BME280;50538;53.482;10.294;2023-05-21T12:14:52;101347.41;;;30.36;43.83
63901;BME280;50538;53.482;10.294;2023-05-21T12:24:53;101338.97;;;30.71;43.83
63901;BME280;50538;53.482;10.294;2023-05-21T12:34:55;101337.50;;;30.84;40.13
63901;BME280;50538;53.482;10.294;2023-05-21T12:44:55;101337.88;;;30.72;40.38
63901;BME280;50538;53.482;10.294;2023-05-21T12:54:57;101321.34;;;30.38;41.62
63901;BME280;50538;53.482;10.294;2023-05-21T13:04:59;101320.53;;;30.77;41.54
63901;BME280;50538;53.482;10.294;2023-05-21T13:15:01;101309.50;;;31.16;39.68
63901;BME280;50538;53.482;10.294;2023-05-21T13:25:02;101296.53;;;31.50;41.76
63901;BME280;50538;53.482;10.294;2023-05-21T13:35:03;101289.06;;;31.56;39.18
63901;BME280;50538;53.482;10.294;2023-05-21T13:45:05;101286.59;;;31.54;38.04
63901;BME280;50538;53.482;10.294;2023-05-21T13:55:06;101270.59;;;31.62;35.13
63901;BME280;50538;53.482;10.294;2023-05-21T14:05:06;101261.84;;;31.83;37.23
63901;BME280;50538;53.482;10.294;2023-05-21T14:15:07;101273.59;;;31.89;35.03
63901;BME280;50538;53.482;10.294;2023-05-21T14:25:08;101281.16;;;31.73;36.50
63901;BME280;50538;53.482;10.294;2023-05-21T14:35:08;101267.19;;;31.22;36.38
63901;BME280;50538;53.482;10.294;2023-05-21T14:45:09;101278.88;;;30.75;38.30
63901;BME280;50538;53.482;10.294;2023-05-21T14:55:10;101273.75;;;30.63;36.60
63901;BME280;50538;53.482;10.294;2023-05-21T15:05:11;101272.38;;;30.66;38.94
63901;BME280;50538;53.482;10.294;2023-05-21T15:15:11;101259.50;;;30.66;38.91
63901;BME280;50538;53.482;10.294;2023-05-21T15:25:12;101267.28;;;30.49;39.48
63901;BME280;50538;53.482;10.294;2023-05-21T15:35:13;101262.56;;;30.20;43.54
63901;BME280;50538;53.482;10.294;2023-05-21T15:45:13;101250.59;;;30.01;41.60
63901;BME280;50538;53.482;10.294;2023-05-21T15:55:13;101244.16;;;29.77;45.45
63901;BME280;50538;53.482;10.294;2023-05-21T16:05:14;101230.22;;;29.73;46.63
63901;BME280;50538;53.482;10.294;2023-05-21T16:15:14;101235.50;;;30.14;43.79
63901;BME280;50538;53.482;10.294;2023-05-21T16:25:15;101233.81;;;30.18;45.68
63901;BME280;50538;53.482;10.294;2023-05-21T16:35:15;101228.56;;;30.21;44.83
63901;BME280;50538;53.482;10.294;2023-05-21T16:45:16;101224.91;;;29.92;46.52
63901;BME280;50538;53.482;10.294;2023-05-21T16:55:22;101222.44;;;29.36;47.78
63901;BME280;50538;53.482;10.294;2023-05-21T17:05:23;101205.88;;;28.72;49.02
63901;BME280;50538;53.482;10.294;2023-05-21T17:15:23;101211.84;;;28.18;49.87
63901;BME280;50538;53.482;10.294;2023-05-21T17:25:23;101211.53;;;27.79;50.80
63901;BME280;50538;53.482;10.294;2023-05-21T17:35:24;101218.97;;;27.41;51.48
63901;BME280;50538;53.482;10.294;2023-05-21T17:45:24;101226.97;;;27.06;51.83
63901;BME280;50538;53.482;10.294;2023-05-21T17:55:24;101230.00;;;26.77;53.06
63901;BME280;50538;53.482;10.294;2023-05-21T18:05:25;101236.06;;;26.47;54.05
63901;BME280;50538;53.482;10.294;2023-05-21T18:15:25;101236.22;;;26.14;54.79
63901;BME280;50538;53.482;10.294;2023-05-21T18:25:25;101246.88;;;25.88;54.81
63901;BME280;50538;53.482;10.294;2023-05-21T18:35:26;101254.63;;;25.58;56.00
63901;BME280;50538;53.482;10.294;2023-05-21T18:45:27;101247.63;;;25.23;56.53
63901;BME280;50538;53.482;10.294;2023-05-21T18:55:27;101249.47;;;24.84;57.69
63901;BME280;50538;53.482;10.294;2023-05-21T19:05:28;101248.31;;;24.47;58.71
63901;BME280;50538;53.482;10.294;2023-05-21T19:15:28;101242.22;;;24.11;59.48
63901;BME280;50538;53.482;10.294;2023-05-21T19:25:28;101243.19;;;23.77;59.57
63901;BME280;50538;53.482;10.294;2023-05-21T19:35:30;101248.09;;;23.51;60.42
63901;BME280;50538;53.482;10.294;2023-05-21T19:45:30;101267.03;;;23.28;61.41
63901;BME280;50538;53.482;10.294;2023-05-21T19:55:31;101273.91;;;23.07;62.01
63901;BME280;50538;53.482;10.294;2023-05-21T20:05:34;101287.41;;;22.84;62.79
63901;BME280;50538;53.482;10.294;2023-05-21T20:15:34;101292.06;;;22.65;63.32
63901;BME280;50538;53.482;10.294;2023-05-21T20:25:35;101296.72;;;22.46;64.31
63901;BME280;50538;53.482;10.294;2023-05-21T20:35:35;101301.13;;;22.29;64.37
63901;BME280;50538;53.482;10.294;2023-05-21T20:45:36;101307.16;;;22.12;64.71
63901;BME280;50538;53.482;10.294;2023-05-21T20:55:38;101306.97;;;21.96;64.20
63901;BME280;50538;53.482;10.294;2023-05-21T21:05:43;101300.50;;;21.78;64.92
63901;BME280;50538;53.482;10.294;2023-05-21T21:15:43;101301.91;;;21.63;64.65
63901;BME280;50538;53.482;10.294;2023-05-21T21:25:43;101299.00;;;21.46;65.50
63901;BME280;50538;53.482;10.294;2023-05-21T21:35:44;101313.06;;;21.30;65.42
63901;BME280;50538;53.482;10.294;2023-05-21T21:45:44;101318.22;;;21.13;66.06
63901;BME280;50538;53.482;10.294;2023-05-21T21:55:45;101316.84;;;20.97;66.01
63901;BME280;50538;53.482;10.294;2023-05-21T22:05:45;101306.19;;;20.84;66.29
63901;BME280;50538;53.482;10.294;2023-05-21T22:15:45;101298.19;;;20.71;66.86
63901;BME280;50538;53.482;10.294;2023-05-21T22:25:46;101300.97;;;20.58;67.01
63901;BME280;50538;53.482;10.294;2023-05-21T22:35:46;101282.97;;;20.45;67.63
63901;BME280;50538;53.482;10.294;2023-05-21T22:45:46;101290.97;;;20.33;67.32
63901;BME280;50538;53.482;10.294;2023-05-21T22:55:47;101280.84;;;20.22;67.70
63901;BME280;50538;53.482;10.294;2023-05-21T23:05:47;101277.38;;;20.08;68.19
63901;BME280;50538;53.482;10.294;2023-05-21T23:15:48;101273.69;;;19.96;67.58
63901;BME280;50538;53.482;10.294;2023-05-21T23:25:49;101282.88;;;19.82;69.25
63901;BME280;50538;53.482;10.294;2023-05-21T23:35:52;101272.16;;;19.69;68.73
63901;BME280;50538;53.482;10.294;2023-05-21T23:45:52;101271.38;;;19.55;68.60
63901;BME280;50538;53.482;10.294;2023-05-21T23:55:52;101269.75;;;19.41;68.83
